Time;durP1;ratioP1;P1;durP2;ratioP2;P2;SDS_P1;SDS_P2;PMS_P1;PMS_P2;Temp;Humidity;BMP_temperature;BMP_pressure;BME280_temperature;BME280_humidity;BME280_pressure;Samples;Min_cycle;Max_cycle;Signal;HPM_P1;HPM_P2
2023/01/10 00:01:14;;;;;;;;;2.75;2.00;;;;;;;;5114988;27;46420;-75
2023/01/10 00:03:39;;;;;;;;;3.25;2.00;;;;;;;;5116857;27;45352;-75
2023/01/10 00:06:04;;;;;;;;;0.25;0.25;;;;;;;;5116092;27;45254;-76
2023/01/10 00:08:30;;;;;;;;;1.50;1.00;;;;;;;;5116269;27;45284;-75
2023/01/10 00:10:55;;;;;;;;;2.50;1.00;;;;;;;;5116251;27;45596;-75
2023/01/10 00:13:23;;;;;;;;;1.00;0.50;;;;;;;;5116100;27;45445;-76
2023/01/10 00:15:51;;;;;;;;;4.00;1.50;;;;;;;;5116503;27;45399;-75
2023/01/10 00:18:17;;;;;;;;;2.50;1.00;;;;;;;;5117093;27;45456;-76
2023/01/10 00:20:45;;;;;;;;;1.50;0.00;;;;;;;;5118089;27;45984;-74
2023/01/10 00:23:11;;;;;;;;;2.50;2.50;;;;;;;;5119756;27;45300;-75
2023/01/10 00:25:36;;;;;;;;;3.00;1.00;;;;;;;;5119295;27;45309;-75
2023/01/10 00:28:20;;;;;;;;;2.00;1.50;;;;;;;;5120423;27;45416;-75
2023/01/10 00:30:53;;;;;;;;;1.75;0.75;;;;;;;;5118378;27;45562;-75
2023/01/10 00:33:19;;;;;;;;;3.00;1.25;;;;;;;;5119604;27;45408;-75
2023/01/10 00:35:45;;;;;;;;;2.25;1.00;;;;;;;;5119720;27;45348;-75
2023/01/10 00:38:10;;;;;;;;;2.25;1.75;;;;;;;;5118291;27;45611;-75
2023/01/10 00:40:36;;;;;;;;;3.75;2.00;;;;;;;;5119426;27;46199;-76
2023/01/10 00:45:45;;;;;;;;;2.00;2.00;;;;;;;;5119588;27;45251;-75
2023/01/10 00:48:11;;;;;;;;;1.00;1.00;;;;;;;;5119132;27;45272;-76
2023/01/10 00:50:36;;;;;;;;;4.75;2.75;;;;;;;;5118853;27;45311;-76
2023/01/10 00:53:02;;;;;;;;;3.00;1.00;;;;;;;;5117974;27;45380;-76
2023/01/10 00:55:27;;;;;;;;;1.25;0.75;;;;;;;;5117988;27;45861;-76
2023/01/10 00:57:53;;;;;;;;;2.75;2.00;;;;;;;;5119478;27;45443;-77
2023/01/10 01:00:18;;;;;;;;;2.00;2.00;;;;;;;;5117964;27;48336;-75
2023/01/10 01:02:43;;;;;;;;;2.00;2.00;;;;;;;;5119674;27;45367;-75
2023/01/10 01:05:09;;;;;;;;;1.25;1.00;;;;;;;;5119151;27;45615;-76
2023/01/10 01:07:34;;;;;;;;;3.50;2.00;;;;;;;;5119727;27;45348;-76
2023/01/10 01:12:43;;;;;;;;;5.50;2.25;;;;;;;;5118924;27;45441;-76
2023/01/10 01:15:08;;;;;;;;;4.00;1.75;;;;;;;;5118903;27;45565;-76
2023/01/10 01:17:33;;;;;;;;;1.25;1.25;;;;;;;;5119115;27;45531;-76
2023/01/10 01:19:59;;;;;;;;;1.75;1.25;;;;;;;;5118774;27;45332;-77
2023/01/10 01:22:24;;;;;;;;;2.75;2.25;;;;;;;;5119096;27;45342;-76
2023/01/10 01:24:49;;;;;;;;;4.75;1.00;;;;;;;;5119269;27;45356;-76
2023/01/10 01:27:14;;;;;;;;;0.50;0.00;;;;;;;;5119568;27;45365;-76
2023/01/10 01:29:40;;;;;;;;;4.50;1.75;;;;;;;;5117130;27;47417;-76
2023/01/10 01:32:05;;;;;;;;;2.00;1.00;;;;;;;;5118886;27;45307;-76
2023/01/10 01:34:31;;;;;;;;;3.25;2.00;;;;;;;;5119588;27;45341;-77
2023/01/10 01:36:57;;;;;;;;;1.00;1.00;;;;;;;;5119560;27;45310;-76
2023/01/10 01:39:22;;;;;;;;;2.00;2.00;;;;;;;;5118353;27;45360;-75
2023/01/10 01:41:56;;;;;;;;;2.25;1.00;;;;;;;;5120757;27;45403;-76
2023/01/10 01:44:22;;;;;;;;;1.75;1.25;;;;;;;;5119871;27;45421;-76
2023/01/10 01:47:14;;;;;;;;;2.75;0.50;;;;;;;;5117475;27;45606;-76
2023/01/10 01:49:42;;;;;;;;;4.50;1.00;;;;;;;;5075001;27;45465;-76
2023/01/10 01:52:10;;;;;;;;;1.00;0.25;;;;;;;;5075235;28;45446;-75
2023/01/10 01:54:36;;;;;;;;;3.75;1.00;;;;;;;;5074923;27;45544;-75
2023/01/10 01:57:04;;;;;;;;;2.25;1.00;;;;;;;;5075057;28;45472;-75
2023/01/10 01:59:39;;;;;;;;;2.00;0.75;;;;;;;;5075076;28;46558;-75
2023/01/10 02:02:07;;;;;;;;;3.25;1.25;;;;;;;;5074772;28;45384;-75
2023/01/10 02:04:37;;;;;;;;;1.00;1.00;;;;;;;;5083966;27;45550;-75
2023/01/10 02:07:03;;;;;;;;;3.25;2.75;;;;;;;;5078384;27;45572;-76
2023/01/10 02:09:39;;;;;;;;;2.25;1.75;;;;;;;;5095273;27;45573;-75
2023/01/10 02:12:04;;;;;;;;;1.00;0.75;;;;;;;;5094649;27;45468;-75
2023/01/10 02:14:30;;;;;;;;;3.00;2.00;;;;;;;;5095199;27;45545;-75
2023/01/10 02:16:56;;;;;;;;;2.75;1.75;;;;;;;;5082080;27;45460;-75
2023/01/10 02:19:32;;;;;;;;;2.25;1.00;;;;;;;;5074411;28;45499;-76
2023/01/10 02:22:15;;;;;;;;;1.25;1.00;;;;;;;;5074118;28;45469;-75
2023/01/10 02:24:46;;;;;;;;;2.75;1.00;;;;;;;;5057695;28;45538;-76
2023/01/10 02:27:18;;;;;;;;;5.75;1.00;;;;;;;;5092772;27;45456;-75
2023/01/10 02:29:54;;;;;;;;;1.25;1.25;;;;;;;;5117353;27;45347;-76
2023/01/10 02:32:25;;;;;;;;;2.00;1.00;;;;;;;;5117658;27;45407;-76
2023/01/10 02:34:57;;;;;;;;;1.00;1.00;;;;;;;;5117658;27;45725;-76
2023/01/10 02:37:34;;;;;;;;;3.50;1.25;;;;;;;;5117004;27;45552;-76
2023/01/10 02:40:06;;;;;;;;;4.00;1.25;;;;;;;;5116898;27;47227;-76
2023/01/10 02:42:43;;;;;;;;;3.50;0.75;;;;;;;;5117126;27;45601;-76
2023/01/10 02:45:08;;;;;;;;;1.00;0.75;;;;;;;;5116710;27;45399;-76
2023/01/10 02:47:36;;;;;;;;;4.50;1.00;;;;;;;;5117545;27;45318;-76
2023/01/10 02:50:25;;;;;;;;;4.75;2.75;;;;;;;;5110221;27;45542;-76
2023/01/10 02:52:50;;;;;;;;;3.00;1.00;;;;;;;;5108633;27;45320;-75
2023/01/10 02:55:16;;;;;;;;;3.25;3.00;;;;;;;;5117050;27;45376;-76
2023/01/10 02:57:48;;;;;;;;;1.00;0.00;;;;;;;;5117447;27;45529;-77
2023/01/10 03:00:23;;;;;;;;;3.00;2.00;;;;;;;;5117030;27;46167;-76
2023/01/10 03:03:07;;;;;;;;;6.75;1.00;;;;;;;;5117137;27;45356;-77
2023/01/10 03:05:51;;;;;;;;;1.75;1.75;;;;;;;;5107082;27;45335;-74
2023/01/10 03:08:22;;;;;;;;;1.00;1.00;;;;;;;;5116103;27;45385;-75
2023/01/10 03:10:56;;;;;;;;;1.00;1.00;;;;;;;;5114765;27;47847;-74
2023/01/10 03:13:26;;;;;;;;;3.00;2.00;;;;;;;;5116137;27;45514;-74
2023/01/10 03:15:52;;;;;;;;;2.25;1.00;;;;;;;;5116021;27;45448;-77
2023/01/10 03:18:27;;;;;;;;;2.00;0.75;;;;;;;;5115679;27;45326;-74
2023/01/10 03:20:53;;;;;;;;;4.00;3.50;;;;;;;;5116060;27;45345;-76
2023/01/10 03:23:21;;;;;;;;;3.25;2.00;;;;;;;;5116479;27;45356;-76
2023/01/10 03:25:48;;;;;;;;;1.00;1.00;;;;;;;;5109431;27;45382;-76
2023/01/10 03:28:17;;;;;;;;;1.00;1.00;;;;;;;;5110938;27;45374;-77
2023/01/10 03:30:49;;;;;;;;;4.25;2.00;;;;;;;;5112049;27;47821;-76
2023/01/10 03:33:16;;;;;;;;;3.75;1.75;;;;;;;;5111755;27;45503;-77
2023/01/10 03:36:00;;;;;;;;;1.50;1.00;;;;;;;;5116491;27;45476;-76
2023/01/10 03:38:34;;;;;;;;;4.50;3.00;;;;;;;;5111120;27;45419;-76
2023/01/10 03:41:07;;;;;;;;;1.75;1.00;;;;;;;;5109271;27;46116;-76
2023/01/10 03:46:38;;;;;;;;;1.00;1.00;;;;;;;;5116362;27;45296;-76
2023/01/10 03:49:05;;;;;;;;;6.25;2.00;;;;;;;;5112646;27;45893;-77
2023/01/10 03:51:30;;;;;;;;;4.50;1.50;;;;;;;;5112579;27;47393;-77
2023/01/10 03:53:58;;;;;;;;;3.25;0.00;;;;;;;;5116416;27;45412;-76
2023/01/10 03:56:23;;;;;;;;;2.00;1.00;;;;;;;;5120025;27;45376;-77
2023/01/10 03:58:49;;;;;;;;;2.00;0.75;;;;;;;;5118780;27;45336;-76
2023/01/10 04:01:15;;;;;;;;;2.00;2.00;;;;;;;;5118155;27;48552;-76
2023/01/10 04:03:41;;;;;;;;;2.00;1.00;;;;;;;;5118012;27;45526;-76
2023/01/10 04:06:06;;;;;;;;;3.75;1.50;;;;;;;;5119648;27;45326;-76
2023/01/10 04:08:32;;;;;;;;;6.00;3.75;;;;;;;;5117871;27;45526;-77
2023/01/10 04:10:57;;;;;;;;;3.50;1.50;;;;;;;;5117481;27;47631;-77
2023/01/10 04:13:22;;;;;;;;;0.50;0.50;;;;;;;;5118714;27;45299;-77
2023/01/10 04:15:47;;;;;;;;;3.50;1.00;;;;;;;;5118865;27;45499;-77
2023/01/10 04:18:14;;;;;;;;;1.50;1.50;;;;;;;;5119541;27;45499;-76
2023/01/10 04:20:39;;;;;;;;;1.25;1.25;;;;;;;;5119125;27;46446;-77
2023/01/10 04:23:05;;;;;;;;;2.00;1.00;;;;;;;;5119326;27;45488;-77
2023/01/10 04:25:30;;;;;;;;;4.50;2.00;;;;;;;;5119690;27;45362;-77
2023/01/10 04:27:55;;;;;;;;;1.50;1.00;;;;;;;;5119232;27;45332;-76
2023/01/10 04:30:20;;;;;;;;;1.00;1.00;;;;;;;;5119450;27;45479;-77
2023/01/10 04:32:46;;;;;;;;;2.00;0.00;;;;;;;;5119417;27;45345;-77
2023/01/10 04:35:12;;;;;;;;;1.00;1.00;;;;;;;;5119358;27;45647;-77
2023/01/10 04:37:37;;;;;;;;;1.75;1.00;;;;;;;;5118224;27;45364;-76
2023/01/10 04:40:03;;;;;;;;;1.75;1.50;;;;;;;;5119399;27;45391;-77
2023/01/10 04:42:28;;;;;;;;;1.50;1.00;;;;;;;;5120441;27;45341;-77
2023/01/10 04:44:53;;;;;;;;;0.00;0.00;;;;;;;;5120807;27;45253;-76
2023/01/10 04:47:18;;;;;;;;;1.75;1.75;;;;;;;;5120886;27;45505;-77
2023/01/10 04:49:44;;;;;;;;;1.50;1.00;;;;;;;;5119525;27;46100;-77
2023/01/10 04:52:09;;;;;;;;;1.25;1.25;;;;;;;;5117459;27;45408;-77
2023/01/10 04:54:35;;;;;;;;;1.25;0.00;;;;;;;;5118538;27;45325;-77
2023/01/10 04:57:00;;;;;;;;;1.25;1.25;;;;;;;;5116088;27;45509;-77
2023/01/10 04:59:26;;;;;;;;;2.00;1.00;;;;;;;;5116598;27;45595;-77
2023/01/10 05:01:51;;;;;;;;;1.75;1.50;;;;;;;;5118175;27;45377;-76
2023/01/10 05:04:16;;;;;;;;;2.50;1.50;;;;;;;;5118481;27;45346;-77
2023/01/10 05:06:42;;;;;;;;;1.00;1.00;;;;;;;;5117380;27;45447;-77
2023/01/10 05:09:07;;;;;;;;;4.00;3.00;;;;;;;;5116875;27;45958;-77
2023/01/10 05:11:33;;;;;;;;;2.75;2.75;;;;;;;;5117936;27;45451;-77
2023/01/10 05:13:58;;;;;;;;;1.50;1.50;;;;;;;;5117261;27;45651;-77
2023/01/10 05:16:24;;;;;;;;;1.50;1.50;;;;;;;;5118325;27;45370;-76
2023/01/10 05:18:49;;;;;;;;;8.75;2.00;;;;;;;;5118082;27;47021;-77
2023/01/10 05:21:15;;;;;;;;;1.25;1.25;;;;;;;;5117943;27;45378;-78
2023/01/10 05:23:40;;;;;;;;;1.50;1.00;;;;;;;;5118746;27;45369;-76
2023/01/10 05:26:06;;;;;;;;;4.00;2.25;;;;;;;;5116668;27;45388;-77
2023/01/10 05:28:32;;;;;;;;;1.00;1.00;;;;;;;;5116693;27;48448;-77
2023/01/10 05:30:57;;;;;;;;;2.00;0.50;;;;;;;;5118181;27;45412;-78
2023/01/10 05:33:23;;;;;;;;;2.25;1.75;;;;;;;;5118391;27;45340;-77
2023/01/10 05:35:48;;;;;;;;;3.75;1.50;;;;;;;;5118044;27;45442;-76
2023/01/10 05:38:13;;;;;;;;;2.00;0.75;;;;;;;;5118132;27;46152;-77
2023/01/10 05:40:38;;;;;;;;;3.00;1.75;;;;;;;;5117387;27;45400;-76
2023/01/10 05:43:04;;;;;;;;;5.50;1.00;;;;;;;;5116237;27;45326;-76
2023/01/10 05:45:29;;;;;;;;;4.00;2.00;;;;;;;;5117991;27;45324;-76
2023/01/10 05:47:54;;;;;;;;;2.50;2.50;;;;;;;;5117816;27;45297;-77
2023/01/10 05:50:20;;;;;;;;;5.25;2.00;;;;;;;;5118217;27;45364;-77
2023/01/10 05:52:46;;;;;;;;;2.00;2.00;;;;;;;;5116692;27;45344;-76
2023/01/10 05:55:11;;;;;;;;;3.25;2.50;;;;;;;;5117610;27;45429;-76
2023/01/10 05:57:36;;;;;;;;;2.00;1.25;;;;;;;;5117959;27;46300;-77
2023/01/10 06:00:03;;;;;;;;;1.00;1.00;;;;;;;;5117541;27;45436;-75
2023/01/10 06:02:29;;;;;;;;;1.00;1.00;;;;;;;;5118000;27;45380;-77
2023/01/10 06:04:54;;;;;;;;;1.75;1.00;;;;;;;;5115619;27;45479;-77
2023/01/10 06:07:20;;;;;;;;;2.00;2.00;;;;;;;;5098812;27;45459;-74
2023/01/10 06:09:45;;;;;;;;;1.50;1.50;;;;;;;;5117469;27;45449;-77
2023/01/10 06:12:10;;;;;;;;;1.75;1.00;;;;;;;;5116115;27;45389;-76
2023/01/10 06:14:36;;;;;;;;;2.75;2.25;;;;;;;;5117473;27;45340;-77
2023/01/10 06:17:01;;;;;;;;;2.00;1.50;;;;;;;;5116197;27;45399;-78
2023/01/10 06:19:26;;;;;;;;;2.75;2.25;;;;;;;;5115845;27;45338;-77
2023/01/10 06:21:51;;;;;;;;;1.75;1.00;;;;;;;;5117184;27;45369;-77
2023/01/10 06:24:17;;;;;;;;;2.00;2.00;;;;;;;;5116018;27;45444;-77
2023/01/10 06:26:42;;;;;;;;;4.50;2.75;;;;;;;;5116441;27;45366;-77
2023/01/10 06:29:07;;;;;;;;;1.25;1.00;;;;;;;;5115480;27;45509;-78
2023/01/10 06:31:32;;;;;;;;;2.00;2.00;;;;;;;;5115982;27;45384;-77
2023/01/10 06:33:58;;;;;;;;;3.25;2.75;;;;;;;;5109611;27;45455;-77
2023/01/10 06:36:23;;;;;;;;;4.75;3.50;;;;;;;;5100866;27;45422;-77
2023/01/10 06:38:48;;;;;;;;;4.00;3.00;;;;;;;;5096529;27;45317;-76
2023/01/10 06:41:13;;;;;;;;;6.75;4.75;;;;;;;;5111131;27;45263;-77
2023/01/10 06:43:44;;;;;;;;;3.00;2.00;;;;;;;;5113171;27;45292;-76
2023/01/10 06:46:09;;;;;;;;;3.50;2.00;;;;;;;;5111810;27;45395;-77
2023/01/10 06:48:35;;;;;;;;;4.00;4.00;;;;;;;;5105416;27;45395;-76
2023/01/10 06:51:01;;;;;;;;;3.00;3.00;;;;;;;;5095208;27;45402;-76
2023/01/10 06:53:26;;;;;;;;;5.25;1.50;;;;;;;;5112945;27;45449;-77
2023/01/10 06:55:53;;;;;;;;;2.75;2.50;;;;;;;;5114562;27;45415;-77
2023/01/10 06:58:18;;;;;;;;;3.75;3.00;;;;;;;;5116449;27;45278;-76
2023/01/10 07:00:43;;;;;;;;;1.00;1.00;;;;;;;;5115677;27;45356;-77
2023/01/10 07:03:08;;;;;;;;;3.50;2.00;;;;;;;;5116130;27;45467;-76
2023/01/10 07:05:34;;;;;;;;;3.50;1.25;;;;;;;;5116098;27;45345;-77
2023/01/10 07:08:00;;;;;;;;;2.00;2.00;;;;;;;;5109416;27;45658;-77
2023/01/10 07:10:25;;;;;;;;;2.50;1.25;;;;;;;;5096965;27;45390;-77
2023/01/10 07:12:52;;;;;;;;;1.50;1.00;;;;;;;;5108586;27;45265;-77
2023/01/10 07:15:18;;;;;;;;;6.50;4.00;;;;;;;;5116521;27;45780;-76
2023/01/10 07:17:43;;;;;;;;;3.00;3.00;;;;;;;;5115403;27;45815;-77
2023/01/10 07:20:09;;;;;;;;;3.00;2.75;;;;;;;;5106736;27;45359;-76
2023/01/10 07:22:34;;;;;;;;;1.50;1.50;;;;;;;;5116195;27;45436;-76
2023/01/10 07:24:59;;;;;;;;;12.50;9.00;;;;;;;;5115364;27;45562;-76
2023/01/10 07:27:24;;;;;;;;;1.25;1.25;;;;;;;;5115728;27;45515;-75
2023/01/10 07:29:50;;;;;;;;;4.00;1.75;;;;;;;;5102705;27;45421;-74
2023/01/10 07:32:15;;;;;;;;;1.00;1.00;;;;;;;;5114016;27;45627;-77
2023/01/10 07:34:40;;;;;;;;;2.25;2.25;;;;;;;;5136856;27;45922;-75
2023/01/10 07:37:05;;;;;;;;;2.00;1.00;;;;;;;;5134367;27;45412;-75
2023/01/10 07:39:31;;;;;;;;;2.00;2.00;;;;;;;;5134659;27;45418;-78
2023/01/10 07:41:56;;;;;;;;;5.00;2.00;;;;;;;;5116469;27;45421;-77
2023/01/10 07:44:21;;;;;;;;;2.00;2.00;;;;;;;;5118130;27;46185;-77
2023/01/10 07:46:46;;;;;;;;;1.75;1.25;;;;;;;;5119422;27;45378;-77
2023/01/10 07:49:13;;;;;;;;;5.25;2.00;;;;;;;;5121159;27;45305;-77
2023/01/10 07:51:38;;;;;;;;;2.50;2.00;;;;;;;;5117780;27;45443;-77
2023/01/10 07:54:03;;;;;;;;;2.00;2.00;;;;;;;;5116615;27;45495;-79
2023/01/10 07:56:29;;;;;;;;;7.25;3.00;;;;;;;;5093897;27;45377;-76
2023/01/10 07:58:54;;;;;;;;;3.00;3.00;;;;;;;;5108862;27;45384;-78
2023/01/10 08:01:19;;;;;;;;;3.75;2.00;;;;;;;;5121823;27;45655;-80
2023/01/10 08:03:45;;;;;;;;;4.00;2.25;;;;;;;;5104497;27;45503;-80
2023/01/10 08:06:10;;;;;;;;;2.50;1.00;;;;;;;;5100304;27;45269;-79
2023/01/10 08:08:35;;;;;;;;;5.50;3.50;;;;;;;;5095763;27;45602;-79
2023/01/10 08:11:04;;;;;;;;;3.00;2.00;;;;;;;;5094615;27;45538;-79
2023/01/10 08:13:30;;;;;;;;;4.50;1.75;;;;;;;;5093114;27;45537;-79
2023/01/10 08:15:55;;;;;;;;;3.00;0.50;;;;;;;;5094489;27;45455;-79
2023/01/10 08:18:21;;;;;;;;;3.50;2.25;;;;;;;;5093212;27;45795;-79
2023/01/10 08:20:53;;;;;;;;;3.50;2.25;;;;;;;;5106679;27;45601;-79
2023/01/10 08:23:19;;;;;;;;;6.75;3.75;;;;;;;;5115657;27;45440;-78
2023/01/10 08:25:44;;;;;;;;;2.75;1.00;;;;;;;;5115765;27;45400;-80
2023/01/10 08:28:10;;;;;;;;;3.00;3.00;;;;;;;;5116386;27;45424;-79
2023/01/10 08:30:36;;;;;;;;;0.25;0.25;;;;;;;;5116098;27;45405;-78
2023/01/10 08:33:02;;;;;;;;;4.25;2.75;;;;;;;;5111652;27;46256;-79
2023/01/10 08:35:27;;;;;;;;;6.50;2.75;;;;;;;;5108974;27;45474;-79
2023/01/10 08:37:52;;;;;;;;;7.00;2.00;;;;;;;;5115778;27;45278;-79
2023/01/10 08:40:17;;;;;;;;;3.75;3.00;;;;;;;;5116715;27;45537;-79
2023/01/10 08:42:43;;;;;;;;;3.00;2.00;;;;;;;;5119449;27;45341;-78
2023/01/10 08:45:08;;;;;;;;;2.50;2.00;;;;;;;;5117537;27;45404;-79
2023/01/10 08:47:34;;;;;;;;;3.00;3.00;;;;;;;;5119371;27;45539;-78
2023/01/10 08:49:59;;;;;;;;;4.00;1.25;;;;;;;;5119416;27;45286;-78
2023/01/10 08:52:24;;;;;;;;;2.25;1.75;;;;;;;;5119480;27;45315;-78
2023/01/10 08:54:49;;;;;;;;;3.00;1.00;;;;;;;;5119403;27;45226;-78
2023/01/10 08:57:15;;;;;;;;;6.50;3.00;;;;;;;;5119563;27;45249;-78
2023/01/10 08:59:40;;;;;;;;;2.00;2.00;;;;;;;;5119098;27;45278;-78
2023/01/10 09:02:07;;;;;;;;;3.00;3.00;;;;;;;;5119132;27;46485;-78
2023/01/10 09:04:32;;;;;;;;;3.00;2.75;;;;;;;;5118822;27;45418;-78
2023/01/10 09:06:57;;;;;;;;;3.25;3.25;;;;;;;;5117710;27;45438;-79
2023/01/10 09:09:22;;;;;;;;;4.25;2.00;;;;;;;;5119458;27;45339;-79
2023/01/10 09:11:48;;;;;;;;;3.00;3.00;;;;;;;;5118792;27;45419;-78
2023/01/10 09:14:14;;;;;;;;;3.00;2.75;;;;;;;;5119183;27;45426;-78
2023/01/10 09:16:39;;;;;;;;;4.75;4.00;;;;;;;;5117394;27;45362;-78
2023/01/10 09:19:04;;;;;;;;;3.50;3.50;;;;;;;;5118757;27;45382;-77
2023/01/10 09:21:30;;;;;;;;;5.00;2.25;;;;;;;;5118830;27;45692;-78
2023/01/10 09:23:55;;;;;;;;;3.00;2.75;;;;;;;;5109491;27;45446;-78
2023/01/10 09:26:20;;;;;;;;;4.75;3.00;;;;;;;;5119083;27;45415;-78
2023/01/10 09:28:45;;;;;;;;;3.75;2.25;;;;;;;;5118828;27;45512;-78
2023/01/10 09:31:11;;;;;;;;;3.50;2.00;;;;;;;;5117952;27;45495;-78
2023/01/10 09:33:36;;;;;;;;;4.00;2.50;;;;;;;;5118613;27;45464;-79
2023/01/10 09:36:02;;;;;;;;;3.50;2.50;;;;;;;;5118352;27;45392;-78
2023/01/10 09:38:27;;;;;;;;;4.00;2.75;;;;;;;;5118424;27;45363;-79
2023/01/10 09:40:52;;;;;;;;;4.75;3.25;;;;;;;;5118269;27;45479;-79
2023/01/10 09:43:17;;;;;;;;;5.00;3.50;;;;;;;;5118427;27;45446;-79
2023/01/10 09:45:50;;;;;;;;;3.50;2.25;;;;;;;;5118249;27;45532;-78
2023/01/10 09:48:23;;;;;;;;;3.00;3.00;;;;;;;;5118405;27;45483;-77
2023/01/10 09:51:08;;;;;;;;;4.25;2.25;;;;;;;;5117397;27;46305;-78
2023/01/10 09:53:36;;;;;;;;;4.00;2.00;;;;;;;;5116624;27;45422;-77
2023/01/10 09:56:03;;;;;;;;;5.00;3.25;;;;;;;;5118104;27;45402;-78
2023/01/10 09:58:30;;;;;;;;;4.00;3.00;;;;;;;;5116849;27;45419;-78
2023/01/10 10:01:00;;;;;;;;;3.25;2.25;;;;;;;;5117710;27;45930;-78
2023/01/10 10:03:35;;;;;;;;;9.00;4.25;;;;;;;;5116327;27;45455;-77
2023/01/10 10:06:01;;;;;;;;;4.00;2.00;;;;;;;;5117867;27;45360;-77
2023/01/10 10:08:26;;;;;;;;;5.25;4.00;;;;;;;;5117743;27;45320;-77
2023/01/10 10:11:03;;;;;;;;;3.00;2.00;;;;;;;;5117467;27;46179;-77
2023/01/10 10:13:43;;;;;;;;;7.00;3.00;;;;;;;;5117902;27;45406;-76
2023/01/10 10:16:17;;;;;;;;;3.50;3.50;;;;;;;;5117539;27;45440;-75
2023/01/10 10:18:51;;;;;;;;;5.25;3.25;;;;;;;;5117856;27;45371;-76
2023/01/10 10:21:22;;;;;;;;;3.00;3.00;;;;;;;;5117303;27;45402;-75
2023/01/10 10:23:56;;;;;;;;;4.75;3.75;;;;;;;;5117366;27;45434;-76
2023/01/10 10:26:37;;;;;;;;;7.25;3.50;;;;;;;;5117358;27;45309;-76
2023/01/10 10:29:21;;;;;;;;;4.25;3.25;;;;;;;;5117852;27;45411;-75
2023/01/10 10:31:46;;;;;;;;;6.50;4.00;;;;;;;;5117586;27;45362;-76
2023/01/10 10:34:35;;;;;;;;;8.00;7.00;;;;;;;;5117501;27;45259;-76
2023/01/10 10:37:04;;;;;;;;;6.50;4.25;;;;;;;;5117699;27;45403;-76
2023/01/10 10:39:39;;;;;;;;;8.75;3.00;;;;;;;;5117491;27;45300;-76
2023/01/10 10:42:09;;;;;;;;;3.00;3.00;;;;;;;;5116138;27;47442;-76
2023/01/10 10:44:34;;;;;;;;;4.00;3.50;;;;;;;;5117700;27;45423;-76
2023/01/10 10:47:00;;;;;;;;;3.00;3.00;;;;;;;;5118839;27;45396;-76
2023/01/10 10:49:25;;;;;;;;;7.75;3.00;;;;;;;;5119011;27;45311;-76
2023/01/10 10:51:51;;;;;;;;;3.75;3.00;;;;;;;;5120858;27;46368;-76
2023/01/10 10:54:17;;;;;;;;;2.75;2.00;;;;;;;;5119724;27;45400;-76
2023/01/10 10:56:42;;;;;;;;;3.00;2.75;;;;;;;;5117594;27;45444;-76
2023/01/10 10:59:10;;;;;;;;;4.75;4.75;;;;;;;;5117147;27;45447;-76
2023/01/10 11:01:35;;;;;;;;;4.50;4.50;;;;;;;;5116927;27;46214;-76
2023/01/10 11:04:01;;;;;;;;;8.50;5.00;;;;;;;;5116696;27;45249;-76
2023/01/10 11:06:29;;;;;;;;;2.00;2.00;;;;;;;;5116935;27;45348;-75
2023/01/10 11:08:56;;;;;;;;;7.75;2.00;;;;;;;;5116455;27;45375;-77
2023/01/10 11:11:26;;;;;;;;;5.00;4.00;;;;;;;;5116416;27;45412;-77
2023/01/10 11:13:54;;;;;;;;;2.75;2.75;;;;;;;;5116774;27;45419;-77
2023/01/10 11:16:24;;;;;;;;;3.00;3.00;;;;;;;;5116716;27;45329;-78
2023/01/10 11:19:08;;;;;;;;;3.00;3.00;;;;;;;;5116978;27;45349;-77
2023/01/10 11:21:33;;;;;;;;;5.00;3.50;;;;;;;;5116793;27;46073;-77
2023/01/10 11:23:59;;;;;;;;;5.50;3.00;;;;;;;;5115002;27;45555;-76
2023/01/10 11:26:26;;;;;;;;;4.75;3.00;;;;;;;;5116901;27;45486;-76
2023/01/10 11:28:52;;;;;;;;;4.50;3.00;;;;;;;;5115394;27;45378;-78
2023/01/10 11:31:27;;;;;;;;;5.00;4.00;;;;;;;;5107408;27;46277;-79
2023/01/10 11:33:53;;;;;;;;;3.00;2.00;;;;;;;;5114959;27;45409;-78
2023/01/10 11:36:18;;;;;;;;;4.00;3.25;;;;;;;;5116376;27;45360;-76
2023/01/10 11:38:57;;;;;;;;;6.00;4.00;;;;;;;;5116345;27;45498;-76
2023/01/10 11:41:24;;;;;;;;;4.00;3.00;;;;;;;;5115105;27;47333;-76
2023/01/10 11:43:49;;;;;;;;;2.25;2.25;;;;;;;;5116121;27;45358;-76
2023/01/10 11:46:20;;;;;;;;;2.75;1.00;;;;;;;;5097669;27;45367;-78
2023/01/10 11:48:50;;;;;;;;;2.25;1.50;;;;;;;;5116590;27;45426;-78
2023/01/10 11:51:19;;;;;;;;;2.50;1.25;;;;;;;;5116550;27;45348;-77
2023/01/10 11:53:45;;;;;;;;;1.00;0.75;;;;;;;;5116135;27;45399;-77
2023/01/10 11:56:12;;;;;;;;;3.75;2.75;;;;;;;;5115865;27;45434;-77
2023/01/10 11:58:39;;;;;;;;;1.00;1.00;;;;;;;;5116685;27;45323;-79
2023/01/10 12:01:04;;;;;;;;;1.00;1.00;;;;;;;;5115150;27;47424;-79
2023/01/10 12:03:32;;;;;;;;;2.00;2.00;;;;;;;;5113344;27;45379;-76
2023/01/10 12:06:02;;;;;;;;;2.00;2.00;;;;;;;;5109054;27;45404;-77
2023/01/10 12:08:30;;;;;;;;;2.25;1.25;;;;;;;;5098235;27;45569;-75
2023/01/10 12:11:19;;;;;;;;;3.00;1.00;;;;;;;;5093861;27;46368;-76
2023/01/10 12:13:48;;;;;;;;;3.50;1.00;;;;;;;;5090846;27;45463;-75
2023/01/10 12:16:23;;;;;;;;;5.00;2.00;;;;;;;;5106017;27;45649;-75
2023/01/10 12:18:50;;;;;;;;;2.50;2.50;;;;;;;;5115908;27;45751;-75
2023/01/10 12:21:17;;;;;;;;;1.25;1.25;;;;;;;;5116167;27;47310;-75
2023/01/10 12:23:44;;;;;;;;;3.00;2.25;;;;;;;;5117320;27;45377;-75
2023/01/10 12:26:12;;;;;;;;;3.25;2.25;;;;;;;;5116734;27;45525;-75
2023/01/10 12:28:39;;;;;;;;;3.00;3.00;;;;;;;;5117520;27;45542;-75
2023/01/10 12:31:05;;;;;;;;;0.75;0.75;;;;;;;;5116713;27;45607;-75
2023/01/10 12:33:31;;;;;;;;;2.75;2.00;;;;;;;;5118029;27;45666;-75
2023/01/10 12:36:11;;;;;;;;;1.75;1.25;;;;;;;;5117817;27;45563;-75
2023/01/10 12:44:33;;;;;;;;;1.00;1.00;;;;;;;;5117791;27;45344;-75
2023/01/10 12:47:17;;;;;;;;;4.25;3.00;;;;;;;;5117787;27;45381;-77
2023/01/10 12:49:57;;;;;;;;;5.75;4.50;;;;;;;;5097271;27;45376;-76
2023/01/10 12:52:32;;;;;;;;;4.00;4.00;;;;;;;;5097129;27;46695;-77
2023/01/10 12:54:57;;;;;;;;;1.00;1.00;;;;;;;;5096780;27;45418;-76
2023/01/10 12:57:26;;;;;;;;;1.50;1.00;;;;;;;;5097019;27;45874;-76
2023/01/10 12:59:53;;;;;;;;;3.00;3.00;;;;;;;;5097245;27;45349;-77
2023/01/10 13:02:21;;;;;;;;;2.50;1.00;;;;;;;;5097813;27;46312;-76
2023/01/10 13:04:50;;;;;;;;;3.25;2.00;;;;;;;;5096769;27;45355;-76
2023/01/10 13:07:16;;;;;;;;;3.00;2.00;;;;;;;;5114532;27;45401;-75
2023/01/10 13:09:42;;;;;;;;;1.00;0.50;;;;;;;;5118661;27;45428;-76
2023/01/10 13:12:32;;;;;;;;;2.25;2.00;;;;;;;;5118518;27;47201;-76
2023/01/10 13:15:02;;;;;;;;;1.00;1.00;;;;;;;;5118719;27;45467;-76
2023/01/10 13:17:30;;;;;;;;;1.00;1.00;;;;;;;;5118786;27;45277;-76
2023/01/10 13:20:14;;;;;;;;;3.00;2.00;;;;;;;;5118354;27;45411;-75
2023/01/10 13:22:39;;;;;;;;;1.00;1.00;;;;;;;;5118660;27;45435;-75
2023/01/10 13:25:05;;;;;;;;;1.25;1.25;;;;;;;;5112391;27;45453;-76
2023/01/10 13:27:32;;;;;;;;;10.75;9.25;;;;;;;;5106636;27;45381;-75
2023/01/10 13:29:58;;;;;;;;;49.25;40.00;;;;;;;;5118575;27;45355;-76
2023/01/10 13:32:26;;;;;;;;;27.50;25.00;;;;;;;;5118210;27;46213;-76
2023/01/10 13:34:51;;;;;;;;;14.50;14.00;;;;;;;;5116934;27;45862;-76
2023/01/10 13:37:37;;;;;;;;;5.00;5.00;;;;;;;;5118331;27;45469;-76
2023/01/10 13:40:04;;;;;;;;;8.00;4.50;;;;;;;;5116960;27;45450;-76
2023/01/10 13:45:15;;;;;;;;;44.00;38.50;;;;;;;;5118284;27;45432;-75
2023/01/10 13:47:47;;;;;;;;;83.75;71.00;;;;;;;;5118682;27;45317;-76
2023/01/10 13:50:21;;;;;;;;;94.33;86.67;;;;;;;;5117693;27;45321;-75
2023/01/10 13:52:46;;;;;;;;;77.00;66.00;;;;;;;;5119700;27;45306;-75
2023/01/10 13:55:27;;;;;;;;;54.00;45.00;;;;;;;;5120236;27;45395;-75
2023/01/10 13:57:52;;;;;;;;;75.50;61.75;;;;;;;;5120237;27;45391;-75
2023/01/10 14:03:39;;;;;;;;;41.25;37.75;;;;;;;;5113943;27;45473;-74
2023/01/10 14:06:25;;;;;;;;;36.25;35.25;;;;;;;;5117695;27;45321;-74
2023/01/10 14:09:10;;;;;;;;;30.25;24.00;;;;;;;;5113436;27;45412;-74
2023/01/10 14:11:41;;;;;;;;;21.50;19.75;;;;;;;;5113429;27;45642;-75
2023/01/10 14:14:15;;;;;;;;;8.25;8.25;;;;;;;;5117653;27;46323;-74
2023/01/10 14:16:42;;;;;;;;;6.75;5.75;;;;;;;;5117069;27;45251;-74
2023/01/10 14:19:22;;;;;;;;;2.25;2.00;;;;;;;;5117665;27;45240;-74
2023/01/10 14:21:50;;;;;;;;;2.50;2.50;;;;;;;;5117635;27;45431;-75
2023/01/10 14:24:23;;;;;;;;;5.00;3.50;;;;;;;;5117571;27;45563;-74
2023/01/10 14:26:48;;;;;;;;;10.75;10.25;;;;;;;;5117245;27;45385;-74
2023/01/10 14:29:14;;;;;;;;;11.00;9.75;;;;;;;;5117268;27;45344;-74
2023/01/10 14:31:45;;;;;;;;;9.75;6.00;;;;;;;;5117907;27;45280;-76
2023/01/10 14:34:18;;;;;;;;;13.50;12.75;;;;;;;;5116499;27;45566;-75
2023/01/10 14:36:56;;;;;;;;;15.25;14.75;;;;;;;;5112026;27;45507;-75
2023/01/10 14:39:21;;;;;;;;;12.00;10.75;;;;;;;;5112061;27;45364;-74
2023/01/10 14:41:52;;;;;;;;;11.00;10.00;;;;;;;;5115217;27;45492;-74
2023/01/10 14:44:17;;;;;;;;;18.00;15.00;;;;;;;;5117083;27;46430;-74
2023/01/10 14:46:42;;;;;;;;;13.50;12.75;;;;;;;;5117079;27;45287;-74
2023/01/10 14:49:37;;;;;;;;;12.50;11.00;;;;;;;;5115826;27;45243;-74
2023/01/10 14:52:22;;;;;;;;;12.25;12.25;;;;;;;;5107092;27;45372;-75
2023/01/10 14:54:53;;;;;;;;;7.50;7.25;;;;;;;;5116902;27;47257;-74
2023/01/10 14:57:22;;;;;;;;;9.75;8.50;;;;;;;;5116671;27;45362;-74
2023/01/10 14:59:49;;;;;;;;;3.00;3.00;;;;;;;;5117009;27;45303;-75
2023/01/10 15:02:22;;;;;;;;;1.50;1.50;;;;;;;;5115362;27;45470;-74
2023/01/10 15:04:51;;;;;;;;;2.00;2.00;;;;;;;;5114151;27;47288;-75
2023/01/10 15:07:16;;;;;;;;;4.50;2.75;;;;;;;;5116372;27;45436;-75